Time;durP1;ratioP1;P1;durP2;ratioP2;P2;SDS_P1;SDS_P2;PMS_P1;PMS_P2;Temp;Humidity;BMP_temperature;BMP_pressure;BME280_temperature;BME280_humidity;BME280_pressure;Samples;Min_cycle;Max_cycle;Signal;HPM_P1;HPM_P2
2023/06/09 00:02:03;;;;;;;9.13;6.13;;;18.90;99.90;;;;;;5031576;28;20184;-69
2023/06/09 00:04:32;;;;;;;7.93;5.27;;;18.90;99.90;;;;;;5031102;28;20235;-68
2023/06/09 00:06:58;;;;;;;6.50;5.80;;;18.90;99.90;;;;;;5031380;28;20504;-70
2023/06/09 00:09:24;;;;;;;7.53;6.70;;;18.80;99.90;;;;;;5030892;28;20927;-69
2023/06/09 00:11:50;;;;;;;14.60;7.17;;;18.80;99.90;;;;;;5031258;28;20206;-68
2023/06/09 00:14:16;;;;;;;6.63;5.93;;;18.80;99.90;;;;;;5031024;28;20469;-69
2023/06/09 00:16:45;;;;;;;10.50;6.97;;;18.70;99.90;;;;;;5031456;28;20309;-70
2023/06/09 00:19:11;;;;;;;7.80;6.20;;;18.70;99.90;;;;;;5031246;28;20664;-70
2023/06/09 00:21:37;;;;;;;8.73;6.10;;;18.60;99.90;;;;;;5031089;28;20787;-70
2023/06/09 00:24:03;;;;;;;17.40;10.10;;;18.60;99.90;;;;;;5031083;28;20438;-71
2023/06/09 00:26:29;;;;;;;9.57;7.83;;;18.60;99.90;;;;;;5030461;28;20644;-69
2023/06/09 00:28:57;;;;;;;7.60;6.60;;;18.60;99.90;;;;;;5031381;28;20554;-69
2023/06/09 00:31:23;;;;;;;7.87;6.10;;;18.50;99.90;;;;;;5031549;28;20210;-70
2023/06/09 00:33:48;;;;;;;11.60;7.70;;;18.50;99.90;;;;;;5022569;28;20429;-69
2023/06/09 00:36:14;;;;;;;7.70;6.37;;;18.40;99.90;;;;;;5029531;28;20175;-69
2023/06/09 00:38:40;;;;;;;6.90;6.27;;;18.30;99.90;;;;;;5030680;28;20182;-69
2023/06/09 00:41:06;;;;;;;7.57;5.80;;;18.30;99.90;;;;;;5026909;28;20233;-70
2023/06/09 00:43:31;;;;;;;11.17;6.53;;;18.30;99.90;;;;;;5023084;28;20426;-70
2023/06/09 00:46:01;;;;;;;7.30;6.10;;;18.20;99.90;;;;;;5027498;28;20282;-70
2023/06/09 00:48:27;;;;;;;8.27;6.70;;;18.20;99.90;;;;;;5027773;28;20293;-71
2023/06/09 00:50:52;;;;;;;8.03;6.10;;;18.20;99.90;;;;;;5028859;28;20467;-69
2023/06/09 00:53:18;;;;;;;9.77;7.07;;;18.20;99.90;;;;;;5030862;28;20416;-69
2023/06/09 00:55:44;;;;;;;9.07;7.20;;;18.10;99.90;;;;;;5030025;28;20695;-69
2023/06/09 00:58:10;;;;;;;7.67;6.27;;;18.00;99.90;;;;;;5029098;28;20425;-70
2023/06/09 01:00:38;;;;;;;7.27;6.63;;;18.10;99.90;;;;;;5030704;28;20179;-68
2023/06/09 01:03:05;;;;;;;7.03;6.33;;;18.00;99.90;;;;;;5030609;28;20440;-69
2023/06/09 01:05:32;;;;;;;9.13;6.97;;;18.00;99.90;;;;;;5030492;28;20856;-69
2023/06/09 01:08:08;;;;;;;11.37;6.50;;;17.90;99.90;;;;;;5030770;28;20516;-70
2023/06/09 01:10:43;;;;;;;7.47;6.70;;;17.90;99.90;;;;;;5028732;28;20911;-70
2023/06/09 01:13:30;;;;;;;5.80;5.30;;;17.90;99.90;;;;;;5038570;28;20860;-68
2023/06/09 01:16:03;;;;;;;8.90;5.90;;;17.80;99.90;;;;;;5023320;28;20519;-70
2023/06/09 01:18:30;;;;;;;7.70;6.70;;;17.70;99.90;;;;;;5030519;28;20409;-69
2023/06/09 01:21:22;;;;;;;12.10;6.50;;;17.70;99.90;;;;;;5030649;28;20434;-69
2023/06/09 01:24:16;;;;;;;9.70;7.10;;;17.60;99.90;;;;;;5030286;28;20413;-69
2023/06/09 01:26:42;;;;;;;8.07;7.30;;;17.60;99.90;;;;;;5030542;28;20768;-69
2023/06/09 01:29:10;;;;;;;8.40;6.10;;;17.60;99.90;;;;;;5030137;28;20495;-69
2023/06/09 01:31:36;;;;;;;7.47;6.30;;;17.50;99.90;;;;;;5030466;28;20434;-69
2023/06/09 01:34:03;;;;;;;7.40;6.47;;;17.50;99.90;;;;;;5030046;28;20447;-69
2023/06/09 01:36:29;;;;;;;8.50;7.00;;;17.40;99.90;;;;;;5028851;28;20425;-69
2023/06/09 01:38:56;;;;;;;10.80;7.10;;;17.40;99.90;;;;;;5033029;28;20769;-69
2023/06/09 01:41:22;;;;;;;10.73;7.50;;;17.40;99.90;;;;;;5033846;28;20507;-69
2023/06/09 01:43:47;;;;;;;9.03;7.80;;;17.30;99.90;;;;;;5033821;28;20843;-69
2023/06/09 01:46:13;;;;;;;7.27;6.40;;;17.30;99.90;;;;;;5033498;28;20177;-69
2023/06/09 01:48:46;;;;;;;9.63;7.20;;;17.30;99.90;;;;;;5033821;28;20277;-69
2023/06/09 01:51:26;;;;;;;8.77;7.40;;;17.20;99.90;;;;;;5033588;28;20888;-69
2023/06/09 01:53:58;;;;;;;9.27;8.47;;;17.20;99.90;;;;;;5026052;28;20406;-69
2023/06/09 01:56:49;;;;;;;9.33;6.73;;;17.10;99.90;;;;;;5033656;28;20916;-70
2023/06/09 01:59:23;;;;;;;11.73;8.37;;;17.10;99.90;;;;;;5033491;28;20420;-69
2023/06/09 02:01:51;;;;;;;8.40;7.37;;;17.00;99.90;;;;;;5025679;28;20404;-69
2023/06/09 02:04:18;;;;;;;7.80;7.10;;;17.00;99.90;;;;;;5032445;28;20436;-69
2023/06/09 02:06:45;;;;;;;8.10;7.07;;;16.90;99.90;;;;;;5033652;28;20475;-70
2023/06/09 02:09:11;;;;;;;9.83;8.83;;;16.90;99.90;;;;;;5033460;28;20413;-69
2023/06/09 02:11:37;;;;;;;8.23;7.30;;;16.90;99.90;;;;;;5033461;28;20411;-69
2023/06/09 02:14:03;;;;;;;10.70;8.17;;;16.90;99.90;;;;;;5031220;28;20427;-69
2023/06/09 02:16:29;;;;;;;10.10;7.20;;;16.80;99.90;;;;;;5033443;28;20415;-69
2023/06/09 02:18:56;;;;;;;10.30;7.70;;;16.80;99.90;;;;;;5034042;28;20527;-70
2023/06/09 02:21:22;;;;;;;11.97;8.00;;;16.80;99.90;;;;;;5033222;28;20538;-70
2023/06/09 02:23:48;;;;;;;10.80;7.43;;;16.80;99.90;;;;;;5032854;28;20506;-70
2023/06/09 02:26:13;;;;;;;8.37;7.57;;;16.80;99.90;;;;;;5030540;28;20184;-70
2023/06/09 02:28:39;;;;;;;8.13;7.27;;;16.80;99.90;;;;;;5033191;28;20250;-70
2023/06/09 02:31:05;;;;;;;8.13;7.33;;;16.80;99.90;;;;;;5033393;28;20276;-70
2023/06/09 02:33:31;;;;;;;9.93;7.50;;;16.70;99.90;;;;;;5033213;28;20172;-70
2023/06/09 02:35:57;;;;;;;9.20;8.13;;;16.70;99.90;;;;;;5033891;28;20195;-70
2023/06/09 02:38:24;;;;;;;9.70;7.87;;;16.70;99.90;;;;;;5033128;28;20664;-70
2023/06/09 02:40:50;;;;;;;12.27;7.80;;;16.70;99.90;;;;;;5023544;28;20412;-70
2023/06/09 02:43:15;;;;;;;9.00;7.83;;;16.70;99.90;;;;;;5033331;28;20461;-69
2023/06/09 02:45:41;;;;;;;6.93;6.33;;;16.70;99.90;;;;;;5033376;28;20425;-70
2023/06/09 02:48:07;;;;;;;9.87;7.07;;;16.70;99.90;;;;;;5032831;28;20173;-70
2023/06/09 02:50:32;;;;;;;9.30;7.20;;;16.60;99.90;;;;;;5032558;28;20756;-70
2023/06/09 02:52:58;;;;;;;11.40;7.47;;;16.60;99.90;;;;;;5032626;28;20271;-68
2023/06/09 02:55:24;;;;;;;8.00;7.20;;;16.50;99.90;;;;;;5032314;28;20238;-69
2023/06/09 02:57:50;;;;;;;8.73;7.83;;;16.50;99.90;;;;;;5031279;28;20185;-68
2023/06/09 03:00:16;;;;;;;7.87;7.20;;;16.50;99.90;;;;;;5144324;22;20827;-71
2023/06/09 03:02:42;;;;;;;9.33;7.60;;;16.50;99.90;;;;;;5031647;28;20263;-71
2023/06/09 03:05:09;;;;;;;11.33;7.60;;;16.50;99.90;;;;;;5031181;28;20890;-68
2023/06/09 03:07:36;;;;;;;8.30;7.10;;;16.40;99.90;;;;;;5029538;28;20214;-70
2023/06/09 03:10:02;;;;;;;7.80;7.00;;;16.40;99.90;;;;;;5030557;28;20972;-71
2023/06/09 03:12:28;;;;;;;8.20;6.50;;;16.40;99.90;;;;;;5031460;28;20422;-71
2023/06/09 03:14:53;;;;;;;11.50;7.60;;;16.40;99.90;;;;;;5031342;28;20491;-71
2023/06/09 03:17:19;;;;;;;8.70;6.87;;;16.30;99.90;;;;;;5031397;28;20168;-70
2023/06/09 03:19:45;;;;;;;11.13;7.80;;;16.30;99.90;;;;;;5031199;28;20658;-70
2023/06/09 03:22:11;;;;;;;8.53;7.50;;;16.30;99.90;;;;;;5031236;28;20244;-70
2023/06/09 03:24:36;;;;;;;8.93;8.03;;;16.20;99.90;;;;;;5029353;28;20809;-70
2023/06/09 03:27:02;;;;;;;9.10;8.20;;;16.20;99.90;;;;;;5031167;28;20169;-70
2023/06/09 03:29:28;;;;;;;8.87;7.97;;;16.20;99.90;;;;;;5030884;28;20280;-71
2023/06/09 03:31:55;;;;;;;8.90;7.83;;;16.30;99.90;;;;;;5031065;28;20169;-71
2023/06/09 03:34:21;;;;;;;8.63;7.20;;;16.20;99.90;;;;;;5030905;28;20787;-70
2023/06/09 03:36:46;;;;;;;8.03;7.23;;;16.30;99.90;;;;;;5030610;28;20537;-70
2023/06/09 03:39:12;;;;;;;15.20;10.83;;;16.30;99.90;;;;;;5030802;28;20456;-71
2023/06/09 03:41:38;;;;;;;8.03;7.00;;;16.30;99.90;;;;;;5029418;28;20218;-70
2023/06/09 03:44:03;;;;;;;9.87;8.00;;;16.30;99.90;;;;;;5030898;28;20626;-70
2023/06/09 03:46:29;;;;;;;11.93;7.57;;;16.40;99.90;;;;;;5030858;28;20258;-69
2023/06/09 03:48:55;;;;;;;8.43;7.10;;;16.30;99.90;;;;;;5030516;28;20224;-70
2023/06/09 03:51:20;;;;;;;15.60;7.30;;;16.40;99.90;;;;;;5030551;28;20656;-71
2023/06/09 03:53:46;;;;;;;9.80;8.53;;;16.30;99.90;;;;;;5030678;28;20239;-70
2023/06/09 03:56:13;;;;;;;12.83;8.20;;;16.40;99.90;;;;;;5030593;28;20172;-70
2023/06/09 03:58:38;;;;;;;8.57;7.77;;;16.40;99.90;;;;;;5028760;28;20176;-70
2023/06/09 04:01:04;;;;;;;7.60;6.80;;;16.40;99.90;;;;;;5029713;28;20926;-70
2023/06/09 04:03:30;;;;;;;12.00;8.07;;;16.60;99.90;;;;;;5030493;28;20255;-70
2023/06/09 04:05:55;;;;;;;8.80;7.00;;;16.60;99.90;;;;;;5030138;28;20186;-70
2023/06/09 04:08:21;;;;;;;8.23;7.40;;;16.70;99.90;;;;;;5030366;28;20184;-71
2023/06/09 04:10:47;;;;;;;14.13;6.90;;;16.80;99.90;;;;;;5030084;28;20240;-69
2023/06/09 04:13:12;;;;;;;8.90;7.00;;;16.90;99.90;;;;;;5026317;28;20185;-70
2023/06/09 04:15:38;;;;;;;11.33;6.47;;;17.10;99.90;;;;;;5030279;28;20192;-69
2023/06/09 04:18:03;;;;;;;6.90;5.80;;;17.80;99.90;;;;;;5030176;28;20245;-70
2023/06/09 04:20:29;;;;;;;7.20;5.43;;;18.60;99.90;;;;;;5030084;28;20292;-73
2023/06/09 04:22:56;;;;;;;6.80;6.20;;;19.30;99.90;;;;;;5023668;28;20264;-70
2023/06/09 04:25:25;;;;;;;8.83;6.27;;;19.40;99.90;;;;;;5030248;28;20412;-71
2023/06/09 04:27:52;;;;;;;5.93;5.40;;;19.50;99.90;;;;;;5024747;28;20782;-70
2023/06/09 04:30:19;;;;;;;8.00;5.37;;;19.40;99.90;;;;;;5030520;28;20506;-71
2023/06/09 04:32:44;;;;;;;5.40;5.00;;;19.50;99.90;;;;;;5030123;28;20437;-74
2023/06/09 04:35:10;;;;;;;12.40;5.80;;;19.30;99.90;;;;;;5030101;28;20462;-71
2023/06/09 04:37:36;;;;;;;6.20;5.60;;;19.80;99.90;;;;;;5030114;28;20264;-71
2023/06/09 04:40:03;;;;;;;5.80;5.30;;;19.60;99.90;;;;;;5028782;28;20199;-70
2023/06/09 04:42:29;;;;;;;10.90;5.70;;;19.60;99.90;;;;;;5030248;28;20286;-70
2023/06/09 04:44:56;;;;;;;5.70;5.17;;;20.10;99.90;;;;;;5030159;28;20418;-71
2023/06/09 04:47:24;;;;;;;5.63;5.10;;;19.70;99.90;;;;;;5030014;28;20463;-72
2023/06/09 04:49:50;;;;;;;6.07;5.30;;;18.80;99.90;;;;;;5024384;28;20468;-69
2023/06/09 04:52:17;;;;;;;4.97;4.50;;;18.70;99.90;;;;;;5030019;28;20424;-69
2023/06/09 04:54:49;;;;;;;6.23;4.70;;;18.70;99.90;;;;;;5027570;28;20464;-69
2023/06/09 04:57:17;;;;;;;5.97;4.93;;;19.00;99.90;;;;;;5029733;28;20410;-70
2023/06/09 04:59:45;;;;;;;5.23;4.57;;;19.50;99.90;;;;;;5029862;28;20456;-70
2023/06/09 05:02:11;;;;;;;4.13;3.80;;;19.90;99.90;;;;;;5029860;28;20500;-71
2023/06/09 05:04:36;;;;;;;4.40;4.00;;;20.10;97.60;;;;;;5029752;28;20568;-69
2023/06/09 05:07:04;;;;;;;5.17;3.87;;;20.40;96.70;;;;;;5029868;28;20405;-71
2023/06/09 05:09:29;;;;;;;5.07;3.30;;;20.50;95.40;;;;;;5029859;28;20203;-71
2023/06/09 05:11:55;;;;;;;5.40;3.83;;;21.00;94.20;;;;;;5029721;28;20429;-69
2023/06/09 05:14:21;;;;;;;7.97;3.80;;;21.20;93.30;;;;;;5033657;28;20777;-70
2023/06/09 05:16:46;;;;;;;6.43;3.70;;;20.90;92.10;;;;;;5033558;28;20167;-70
2023/06/09 05:19:12;;;;;;;4.40;4.00;;;20.50;92.40;;;;;;5033975;28;20635;-71
2023/06/09 05:21:38;;;;;;;6.03;3.40;;;20.70;92.40;;;;;;5031397;28;20176;-69
2023/06/09 05:24:05;;;;;;;8.87;3.30;;;20.70;92.10;;;;;;5026050;28;20592;-70
2023/06/09 05:26:31;;;;;;;3.47;3.17;;;21.00;91.90;;;;;;5034038;28;20449;-70
2023/06/09 05:28:58;;;;;;;3.97;3.57;;;21.20;90.90;;;;;;5033919;28;20428;-71
2023/06/09 05:31:24;;;;;;;5.43;4.00;;;21.30;90.50;;;;;;5033383;28;20498;-71
2023/06/09 05:33:50;;;;;;;6.13;3.17;;;21.30;90.20;;;;;;5033467;28;20416;-70
2023/06/09 05:36:16;;;;;;;3.93;3.37;;;21.30;88.60;;;;;;5033233;28;20424;-71
2023/06/09 05:38:41;;;;;;;4.63;3.80;;;21.50;90.20;;;;;;5031718;28;20247;-72
2023/06/09 05:41:07;;;;;;;5.10;4.03;;;21.40;89.50;;;;;;5033288;28;20732;-71
2023/06/09 05:43:33;;;;;;;4.27;3.87;;;21.60;88.80;;;;;;5033177;28;20226;-70
2023/06/09 05:45:59;;;;;;;4.20;3.30;;;21.90;87.60;;;;;;5032947;28;20173;-70
2023/06/09 05:48:25;;;;;;;4.37;3.83;;;21.50;86.50;;;;;;5032838;28;20175;-69
2023/06/09 05:50:51;;;;;;;3.77;3.37;;;22.10;85.40;;;;;;5033130;28;20215;-68
2023/06/09 05:53:17;;;;;;;3.87;3.57;;;22.50;84.70;;;;;;5032906;28;20416;-69
2023/06/09 05:55:44;;;;;;;2.97;2.67;;;22.40;83.10;;;;;;5033265;28;20410;-69
2023/06/09 05:58:11;;;;;;;5.40;4.20;;;22.60;81.10;;;;;;5031833;28;20544;-70
2023/06/09 06:00:37;;;;;;;3.60;3.07;;;22.50;79.30;;;;;;5032399;28;20815;-70
2023/06/09 06:03:03;;;;;;;4.23;3.60;;;22.10;80.90;;;;;;5032920;28;20425;-70
2023/06/09 06:05:29;;;;;;;3.80;3.50;;;22.30;79.70;;;;;;5032492;28;20190;-71
2023/06/09 06:07:57;;;;;;;3.50;3.20;;;22.70;77.50;;;;;;5032712;28;20283;-69
2023/06/09 06:10:23;;;;;;;3.50;2.60;;;22.90;74.20;;;;;;5032951;28;20511;-70
2023/06/09 06:12:48;;;;;;;4.73;3.10;;;23.10;73.10;;;;;;5027566;28;20933;-69
2023/06/09 06:15:14;;;;;;;3.80;3.03;;;23.70;72.70;;;;;;5029252;28;20172;-73
2023/06/09 06:17:40;;;;;;;6.67;2.80;;;24.00;71.40;;;;;;5032113;28;20228;-69
2023/06/09 06:20:06;;;;;;;7.13;3.33;;;24.60;69.00;;;;;;5031340;28;20509;-69
2023/06/09 06:22:32;;;;;;;4.73;3.00;;;25.20;64.80;;;;;;5029521;28;20516;-72
2023/06/09 06:24:58;;;;;;;3.30;3.00;;;25.60;64.00;;;;;;5027348;28;20525;-69
2023/06/09 06:27:23;;;;;;;3.60;3.30;;;25.50;62.50;;;;;;5028566;28;20233;-69
2023/06/09 06:29:49;;;;;;;5.70;3.63;;;26.00;64.30;;;;;;5029487;28;20203;-70
2023/06/09 06:32:15;;;;;;;6.80;3.90;;;26.00;64.10;;;;;;5031863;28;20167;-69
2023/06/09 06:34:41;;;;;;;3.73;3.33;;;26.10;64.20;;;;;;5031380;28;20180;-69
2023/06/09 06:37:07;;;;;;;3.90;3.57;;;25.90;63.70;;;;;;5031359;28;20180;-68
2023/06/09 06:39:32;;;;;;;4.57;2.87;;;25.70;64.70;;;;;;5027010;28;20199;-69
2023/06/09 06:41:58;;;;;;;4.33;3.37;;;26.20;61.50;;;;;;5024226;28;20421;-68
2023/06/09 06:44:24;;;;;;;7.23;3.17;;;25.80;62.80;;;;;;5025062;28;20221;-68
2023/06/09 06:46:50;;;;;;;6.13;3.53;;;26.30;62.90;;;;;;5031571;28;20610;-68
2023/06/09 06:49:16;;;;;;;4.00;3.00;;;26.60;61.20;;;;;;5031556;28;20191;-69
2023/06/09 06:51:41;;;;;;;3.60;3.30;;;26.30;60.50;;;;;;5031219;28;20198;-68
2023/06/09 06:54:07;;;;;;;3.17;2.73;;;26.60;59.90;;;;;;5031305;28;20217;-67
2023/06/09 06:56:32;;;;;;;3.50;3.20;;;27.10;58.20;;;;;;5027458;28;20172;-68
2023/06/09 06:58:58;;;;;;;4.90;3.30;;;27.40;56.90;;;;;;5024184;28;20249;-69
2023/06/09 07:01:24;;;;;;;5.53;3.63;;;27.70;56.70;;;;;;5031490;28;20209;-70
2023/06/09 07:03:50;;;;;;;4.53;3.47;;;27.70;56.50;;;;;;5031200;28;20171;-71
2023/06/09 07:06:17;;;;;;;3.40;3.03;;;27.70;56.20;;;;;;5031625;28;20758;-71
2023/06/09 07:08:43;;;;;;;3.50;3.17;;;27.70;56.20;;;;;;5031230;28;20781;-70
2023/06/09 07:11:09;;;;;;;6.40;3.50;;;27.40;57.50;;;;;;5031238;28;20480;-70
2023/06/09 07:13:35;;;;;;;6.20;3.37;;;26.50;58.10;;;;;;5031214;28;20258;-70
2023/06/09 07:16:01;;;;;;;4.83;3.80;;;26.60;59.60;;;;;;5030993;28;20881;-68
2023/06/09 07:18:27;;;;;;;4.50;3.73;;;27.50;58.80;;;;;;5030919;28;20236;-68
2023/06/09 07:20:53;;;;;;;12.70;3.50;;;28.50;57.40;;;;;;5030859;28;20462;-70
2023/06/09 07:23:19;;;;;;;4.40;2.90;;;28.30;57.60;;;;;;5031229;28;20453;-70
2023/06/09 07:25:44;;;;;;;5.37;3.00;;;27.60;57.80;;;;;;5031201;28;20246;-68
2023/06/09 07:28:10;;;;;;;4.83;3.00;;;27.40;58.60;;;;;;5030919;28;20552;-70
2023/06/09 07:30:37;;;;;;;8.10;3.87;;;27.10;58.50;;;;;;5028788;28;20215;-68
2023/06/09 07:33:04;;;;;;;7.07;3.57;;;26.60;59.30;;;;;;5026620;28;20532;-68
2023/06/09 07:35:30;;;;;;;7.20;3.27;;;26.30;59.70;;;;;;5030328;28;20500;-66
2023/06/09 07:37:56;;;;;;;3.60;2.97;;;25.80;61.40;;;;;;5030451;28;20500;-67
2023/06/09 07:40:22;;;;;;;3.57;3.27;;;25.40;62.60;;;;;;5031287;28;20680;-68
2023/06/09 07:42:48;;;;;;;4.93;3.53;;;25.40;62.90;;;;;;5030838;28;20500;-69
2023/06/09 07:45:14;;;;;;;4.00;3.60;;;25.30;62.60;;;;;;5030937;28;20175;-69
2023/06/09 07:47:40;;;;;;;3.60;2.90;;;25.10;62.80;;;;;;5030569;28;20933;-69
2023/06/09 07:50:06;;;;;;;3.97;3.57;;;25.20;62.60;;;;;;5030291;28;20316;-70
2023/06/09 07:52:32;;;;;;;4.50;3.30;;;25.20;62.80;;;;;;5030602;28;20222;-69
2023/06/09 07:54:58;;;;;;;4.83;3.60;;;24.60;65.40;;;;;;5030562;28;20879;-71
2023/06/09 07:57:23;;;;;;;3.80;3.50;;;24.90;63.40;;;;;;5030492;28;20247;-67
2023/06/09 07:59:49;;;;;;;3.13;2.83;;;24.80;63.70;;;;;;5030243;28;20218;-69
2023/06/09 08:02:16;;;;;;;6.03;2.93;;;24.90;63.90;;;;;;5030743;28;20179;-69
2023/06/09 08:04:42;;;;;;;4.37;3.33;;;24.70;64.50;;;;;;5030365;28;20476;-68
2023/06/09 08:07:09;;;;;;;4.07;3.17;;;24.70;66.10;;;;;;5029465;28;20904;-69
2023/06/09 08:09:35;;;;;;;3.63;3.07;;;25.00;64.70;;;;;;5030305;28;20908;-70
2023/06/09 08:12:01;;;;;;;4.00;3.30;;;25.80;63.20;;;;;;5030607;28;20445;-69
2023/06/09 08:14:27;;;;;;;4.83;3.20;;;26.30;62.50;;;;;;5030340;28;20413;-70
2023/06/09 08:16:52;;;;;;;6.30;3.00;;;26.10;62.50;;;;;;5029845;28;20242;-70
2023/06/09 08:19:18;;;;;;;8.10;3.37;;;25.80;64.40;;;;;;5029842;28;20274;-69
2023/06/09 08:21:44;;;;;;;3.90;3.50;;;25.50;65.60;;;;;;5022261;28;20189;-70
2023/06/09 08:24:12;;;;;;;5.73;5.20;;;25.20;66.60;;;;;;5021985;28;20180;-70
2023/06/09 08:26:39;;;;;;;3.20;2.83;;;25.20;65.90;;;;;;5026381;28;20192;-69
2023/06/09 08:29:06;;;;;;;5.10;3.33;;;25.10;67.20;;;;;;5024826;28;20488;-70
2023/06/09 08:31:33;;;;;;;4.30;3.63;;;24.90;65.80;;;;;;5022800;28;20477;-70
2023/06/09 08:33:59;;;;;;;4.80;2.67;;;24.80;64.40;;;;;;5030417;28;20504;-70
2023/06/09 08:36:25;;;;;;;3.50;2.93;;;24.80;64.20;;;;;;5030591;28;20419;-70
2023/06/09 08:38:51;;;;;;;6.07;2.93;;;24.90;64.80;;;;;;5031547;28;20833;-70
2023/06/09 08:41:18;;;;;;;3.90;2.60;;;24.70;64.30;;;;;;5025056;28;20203;-69
2023/06/09 08:43:46;;;;;;;3.20;2.90;;;24.90;64.40;;;;;;5029997;28;20185;-70
2023/06/09 08:46:12;;;;;;;6.40;2.97;;;24.90;64.40;;;;;;5030411;28;20421;-70
2023/06/09 08:48:41;;;;;;;6.17;3.50;;;25.00;64.10;;;;;;5033942;28;20412;-70
2023/06/09 08:51:08;;;;;;;4.17;3.00;;;25.30;64.10;;;;;;5033704;28;20457;-69
2023/06/09 08:53:34;;;;;;;4.63;3.37;;;25.70;62.40;;;;;;5027039;28;20511;-69
2023/06/09 08:56:01;;;;;;;3.93;2.93;;;25.90;61.70;;;;;;5027426;28;20408;-69
2023/06/09 08:58:28;;;;;;;4.00;3.33;;;25.70;61.80;;;;;;5029997;28;20437;-69
2023/06/09 09:00:53;;;;;;;4.63;3.30;;;25.50;62.70;;;;;;5029540;28;20453;-69
2023/06/09 09:03:20;;;;;;;3.50;3.20;;;25.90;62.80;;;;;;5033592;28;20563;-69
2023/06/09 09:05:48;;;;;;;4.13;3.73;;;26.30;62.50;;;;;;5015322;28;20291;-70
2023/06/09 09:08:14;;;;;;;3.33;2.97;;;27.20;61.30;;;;;;5026955;28;20417;-68
2023/06/09 09:10:41;;;;;;;4.70;3.87;;;27.40;60.00;;;;;;5032938;28;20496;-69
2023/06/09 09:13:10;;;;;;;3.40;3.10;;;27.70;58.40;;;;;;5033693;28;20210;-68
2023/06/09 09:15:37;;;;;;;3.17;2.87;;;27.60;58.60;;;;;;5033238;28;20853;-68
2023/06/09 09:18:06;;;;;;;6.93;3.10;;;27.80;58.20;;;;;;5029764;28;20513;-68
2023/06/09 09:20:34;;;;;;;4.40;3.57;;;27.80;58.70;;;;;;5031924;28;20442;-68
2023/06/09 09:23:00;;;;;;;4.30;2.63;;;27.40;58.70;;;;;;5032575;28;20419;-68
2023/06/09 09:25:28;;;;;;;3.80;2.93;;;27.80;58.40;;;;;;5033615;28;20504;-67
2023/06/09 09:28:07;;;;;;;5.23;3.03;;;27.80;59.00;;;;;;5029974;28;20516;-68
2023/06/09 09:30:54;;;;;;;3.50;3.20;;;29.10;58.30;;;;;;5039498;28;21031;-69
2023/06/09 09:33:27;;;;;;;4.73;3.37;;;29.10;57.60;;;;;;5033380;28;20414;-70
2023/06/09 09:35:57;;;;;;;4.40;4.00;;;29.10;58.60;;;;;;5024353;28;20529;-70
2023/06/09 09:38:28;;;;;;;5.37;3.90;;;29.00;59.40;;;;;;5032044;28;20425;-68
2023/06/09 09:40:55;;;;;;;5.00;3.40;;;30.00;57.40;;;;;;5025926;28;20452;-68
2023/06/09 09:43:25;;;;;;;4.80;3.80;;;31.10;56.10;;;;;;5028625;28;20421;-69
2023/06/09 09:45:52;;;;;;;6.10;3.50;;;31.70;55.10;;;;;;5015239;28;20422;-69
2023/06/09 09:48:21;;;;;;;4.13;3.73;;;31.90;54.40;;;;;;5029195;28;20442;-69
2023/06/09 09:50:50;;;;;;;4.13;3.27;;;31.40;53.80;;;;;;5030828;28;20683;-69
2023/06/09 09:53:20;;;;;;;3.60;3.30;;;30.60;55.00;;;;;;5027443;28;20441;-69
2023/06/09 09:55:46;;;;;;;3.90;3.43;;;30.60;55.70;;;;;;5028881;28;20421;-69
2023/06/09 09:58:14;;;;;;;4.00;3.00;;;30.80;55.40;;;;;;5031271;28;20493;-69
2023/06/09 10:00:44;;;;;;;4.00;3.60;;;31.00;54.70;;;;;;5028422;28;20469;-69
2023/06/09 10:03:15;;;;;;;3.83;3.43;;;30.40;55.60;;;;;;5031531;28;20422;-69
2023/06/09 10:05:46;;;;;;;6.93;3.10;;;30.70;55.10;;;;;;5028677;28;20934;-69
2023/06/09 10:08:17;;;;;;;5.07;4.00;;;30.80;56.20;;;;;;5032689;28;20759;-69
2023/06/09 10:10:43;;;;;;;4.57;4.07;;;30.70;57.20;;;;;;5030198;28;20465;-68
2023/06/09 10:13:09;;;;;;;4.50;4.10;;;30.50;58.60;;;;;;5033089;28;20422;-68
2023/06/09 10:15:35;;;;;;;5.13;3.50;;;30.30;59.30;;;;;;5030605;28;20426;-69
2023/06/09 10:18:02;;;;;;;5.00;3.77;;;29.40;59.30;;;;;;5032974;28;20759;-68
2023/06/09 10:20:28;;;;;;;4.20;3.67;;;28.90;60.50;;;;;;5030098;28;20434;-68
2023/06/09 10:22:54;;;;;;;5.17;4.53;;;29.10;59.70;;;;;;5027828;28;20438;-68
2023/06/09 10:25:22;;;;;;;3.67;3.33;;;29.30;58.50;;;;;;5023953;28;20187;-69
2023/06/09 10:27:50;;;;;;;5.00;4.43;;;29.00;59.10;;;;;;5024175;28;20487;-69
2023/06/09 10:30:16;;;;;;;3.70;3.30;;;28.80;59.10;;;;;;5032244;28;20458;-69
2023/06/09 10:32:53;;;;;;;3.53;3.23;;;28.90;58.50;;;;;;5026489;28;20422;-67
2023/06/09 10:35:24;;;;;;;4.53;4.23;;;29.40;57.70;;;;;;5028652;28;20544;-69
2023/06/09 10:37:50;;;;;;;5.23;4.30;;;29.20;57.40;;;;;;5026411;28;20394;-69
2023/06/09 10:40:16;;;;;;;3.50;3.20;;;29.00;57.50;;;;;;5028109;28;20426;-69
2023/06/09 10:43:11;;;;;;;3.83;3.43;;;29.20;56.40;;;;;;5032330;28;20420;-69
2023/06/09 10:45:55;;;;;;;3.90;2.83;;;29.00;54.30;;;;;;5030686;28;20180;-69
2023/06/09 10:48:42;;;;;;;4.07;3.33;;;28.70;55.90;;;;;;5032367;28;20915;-69
2023/06/09 10:51:26;;;;;;;3.47;2.87;;;28.60;55.20;;;;;;5026617;28;20464;-69
2023/06/09 10:54:07;;;;;;;3.97;3.27;;;28.30;55.90;;;;;;5032368;28;20409;-69
2023/06/09 10:56:35;;;;;;;3.23;2.93;;;28.20;56.00;;;;;;5031925;28;20409;-69
2023/06/09 10:59:01;;;;;;;4.10;3.50;;;28.30;56.20;;;;;;5032082;28;20912;-70
2023/06/09 11:01:26;;;;;;;5.13;3.20;;;28.20;56.50;;;;;;5032123;28;20502;-69
2023/06/09 11:03:52;;;;;;;4.60;3.30;;;28.30;56.40;;;;;;5032184;28;20292;-69
2023/06/09 11:06:17;;;;;;;4.40;4.00;;;28.10;56.40;;;;;;5031994;28;20635;-69
2023/06/09 11:09:12;;;;;;;3.77;3.33;;;28.30;56.30;;;;;;5031677;28;20203;-70
2023/06/09 11:11:51;;;;;;;6.10;3.57;;;28.30;56.60;;;;;;5031678;28;20206;-69
2023/06/09 11:14:45;;;;;;;4.10;3.80;;;28.20;56.60;;;;;;5031507;28;20402;-69
2023/06/09 11:17:16;;;;;;;5.37;3.40;;;28.20;56.40;;;;;;5025700;28;20405;-70
2023/06/09 11:19:42;;;;;;;4.20;3.47;;;28.20;56.90;;;;;;5031219;28;20429;-69
2023/06/09 11:22:12;;;;;;;4.90;3.70;;;28.20;57.00;;;;;;5031567;28;20420;-70
2023/06/09 11:24:53;;;;;;;3.60;3.30;;;28.00;56.60;;;;;;5030915;28;20202;-70
2023/06/09 11:27:23;;;;;;;4.73;3.10;;;28.00;56.60;;;;;;5031759;28;20475;-66
2023/06/09 11:30:05;;;;;;;4.00;3.70;;;27.90;56.00;;;;;;5029056;28;20472;-75
2023/06/09 11:32:50;;;;;;;5.30;3.60;;;27.90;56.40;;;;;;5030113;28;20420;-69
2023/06/09 11:35:30;;;;;;;5.13;3.47;;;28.10;56.40;;;;;;5031167;28;20483;-68
2023/06/09 11:38:03;;;;;;;4.30;3.33;;;28.40;57.10;;;;;;5025637;28;20406;-69
2023/06/09 11:40:30;;;;;;;4.60;3.63;;;28.40;55.50;;;;;;5030825;28;20728;-69
2023/06/09 11:42:57;;;;;;;3.97;3.63;;;28.20;55.40;;;;;;5031345;28;20885;-69
2023/06/09 11:45:23;;;;;;;3.60;3.30;;;28.30;55.20;;;;;;5027524;28;20509;-70
2023/06/09 11:47:49;;;;;;;5.40;3.83;;;28.50;55.30;;;;;;5031283;28;20520;-69
2023/06/09 11:50:16;;;;;;;4.07;3.73;;;28.40;55.50;;;;;;5030686;28;20452;-69
2023/06/09 11:52:43;;;;;;;3.33;3.00;;;28.50;55.40;;;;;;5045543;28;20424;-69
2023/06/09 11:55:11;;;;;;;5.33;3.60;;;28.80;54.90;;;;;;5030830;28;21208;-68
2023/06/09 11:57:37;;;;;;;3.77;3.37;;;28.50;54.90;;;;;;5044637;28;20429;-68
2023/06/09 12:00:13;;;;;;;5.10;4.00;;;28.50;55.00;;;;;;5030680;28;20917;-68
2023/06/09 12:02:40;;;;;;;4.23;3.73;;;28.50;55.20;;;;;;5030952;28;20460;-68
2023/06/09 12:05:10;;;;;;;4.20;3.80;;;28.40;55.10;;;;;;5029152;28;20437;-69
2023/06/09 12:07:36;;;;;;;3.40;3.10;;;28.50;55.10;;;;;;5031150;28;20851;-69
2023/06/09 12:10:03;;;;;;;3.00;2.80;;;28.50;55.10;;;;;;5030635;28;20462;-69
2023/06/09 12:12:29;;;;;;;4.43;3.53;;;28.40;54.20;;;;;;5030978;28;20417;-69
2023/06/09 12:14:54;;;;;;;5.73;3.30;;;28.50;54.50;;;;;;5030868;28;20422;-70
2023/06/09 12:17:20;;;;;;;4.70;3.50;;;28.40;54.70;;;;;;5030427;28;20542;-69
2023/06/09 12:19:51;;;;;;;6.27;4.87;;;28.40;54.90;;;;;;5030470;28;20214;-70
2023/06/09 12:22:16;;;;;;;5.10;3.30;;;28.50;54.00;;;;;;5029877;28;20171;-70
2023/06/09 12:24:44;;;;;;;4.77;4.37;;;28.40;54.30;;;;;;5030355;28;20412;-68
2023/06/09 12:27:13;;;;;;;3.87;3.30;;;28.40;54.20;;;;;;5031035;28;20175;-70
2023/06/09 12:29:39;;;;;;;4.57;3.67;;;28.40;54.10;;;;;;5030080;28;20433;-68
2023/06/09 12:32:06;;;;;;;3.63;3.10;;;28.40;54.20;;;;;;5028645;28;20895;-71
2023/06/09 12:34:32;;;;;;;3.70;3.40;;;28.50;54.30;;;;;;5030127;28;20513;-68
2023/06/09 12:36:58;;;;;;;3.63;3.33;;;28.80;54.00;;;;;;5025224;28;20420;-69
2023/06/09 12:39:34;;;;;;;5.10;4.60;;;28.60;53.70;;;;;;5025138;28;20284;-69
2023/06/09 12:42:13;;;;;;;3.87;3.47;;;28.50;53.50;;;;;;5022193;28;20428;-69
2023/06/09 12:44:39;;;;;;;3.73;3.43;;;28.40;53.60;;;;;;5029682;28;20777;-69
2023/06/09 12:47:13;;;;;;;4.00;3.40;;;28.40;53.80;;;;;;5024434;28;20418;-68
2023/06/09 12:49:42;;;;;;;4.03;3.63;;;28.70;54.20;;;;;;5029962;28;20947;-70